Time;durP1;ratioP1;P1;durP2;ratioP2;P2;SDS_P1;SDS_P2;PMS_P1;PMS_P2;Temp;Humidity;BMP_temperature;BMP_pressure;BME280_temperature;BME280_humidity;BME280_pressure;Samples;Min_cycle;Max_cycle;Signal;HPM_P1;HPM_P2
2022/11/27 00:01:47;;;;;;;6.10;3.63;;;8.80;99.90;;;;;;5056422;28;20254;-66
2022/11/27 00:04:13;;;;;;;10.90;4.30;;;8.90;99.90;;;;;;5071282;28;20264;-66
2022/11/27 00:06:39;;;;;;;10.53;3.83;;;9.00;99.90;;;;;;5058775;28;20201;-66
2022/11/27 00:09:09;;;;;;;7.23;4.40;;;9.00;99.90;;;;;;5058128;28;20644;-66
2022/11/27 00:11:38;;;;;;;7.23;4.07;;;8.70;99.90;;;;;;5055339;28;20524;-66
2022/11/27 00:14:03;;;;;;;7.37;4.03;;;8.80;99.90;;;;;;5058115;28;20201;-66
2022/11/27 00:16:29;;;;;;;6.90;3.43;;;8.80;99.90;;;;;;5069485;28;20662;-66
2022/11/27 00:18:55;;;;;;;6.87;3.73;;;8.90;99.90;;;;;;5069449;28;20204;-65
2022/11/27 00:21:27;;;;;;;10.47;3.63;;;8.80;99.90;;;;;;5057640;28;20181;-66
2022/11/27 00:23:54;;;;;;;11.10;4.97;;;8.70;99.90;;;;;;5067495;28;20540;-66
2022/11/27 00:26:20;;;;;;;10.17;3.63;;;8.70;99.90;;;;;;5053823;28;20193;-66
2022/11/27 00:28:46;;;;;;;8.53;4.17;;;8.80;99.90;;;;;;5060811;28;20190;-66
2022/11/27 00:31:15;;;;;;;11.17;4.60;;;8.90;99.90;;;;;;5066258;28;20191;-66
2022/11/27 00:33:41;;;;;;;10.30;4.07;;;9.00;99.90;;;;;;5055762;28;20213;-66
2022/11/27 00:36:08;;;;;;;10.63;4.73;;;8.90;99.90;;;;;;5068771;28;20252;-65
2022/11/27 00:38:34;;;;;;;9.23;3.33;;;8.80;99.90;;;;;;5063964;28;20205;-65
2022/11/27 00:41:06;;;;;;;15.67;4.63;;;8.80;99.90;;;;;;5057169;28;20184;-65
2022/11/27 00:43:33;;;;;;;9.10;3.27;;;8.80;99.90;;;;;;5071219;28;20199;-65
2022/11/27 00:45:59;;;;;;;9.30;3.53;;;8.90;99.90;;;;;;5097666;28;20178;-65
2022/11/27 00:48:24;;;;;;;8.93;4.00;;;9.00;99.90;;;;;;5069058;28;20212;-65
2022/11/27 00:50:50;;;;;;;7.20;4.13;;;8.90;99.90;;;;;;5055315;28;20194;-65
2022/11/27 00:53:16;;;;;;;6.30;3.87;;;8.90;99.90;;;;;;5059319;28;20190;-65
2022/11/27 00:55:42;;;;;;;9.03;3.70;;;9.00;99.90;;;;;;5052682;28;20269;-65
2022/11/27 00:58:07;;;;;;;11.40;3.97;;;8.80;99.90;;;;;;5054870;28;20221;-65
2022/11/27 01:00:33;;;;;;;15.43;4.77;;;8.90;99.90;;;;;;5057464;28;20211;-65
2022/11/27 01:02:58;;;;;;;10.43;3.23;;;8.80;99.90;;;;;;5066297;28;20189;-65
2022/11/27 01:05:24;;;;;;;5.67;3.10;;;8.90;99.90;;;;;;5058994;28;20182;-65
2022/11/27 01:07:50;;;;;;;6.87;2.93;;;9.00;99.90;;;;;;5070199;28;20280;-65
2022/11/27 01:10:15;;;;;;;5.63;3.47;;;8.90;99.90;;;;;;5045278;28;20273;-65
2022/11/27 01:12:41;;;;;;;8.37;3.40;;;8.90;99.90;;;;;;5051813;28;20198;-65
2022/11/27 01:15:07;;;;;;;8.67;3.20;;;9.00;99.90;;;;;;5065689;28;20651;-65
2022/11/27 01:17:33;;;;;;;8.80;3.70;;;8.90;99.90;;;;;;5070934;28;20574;-65
2022/11/27 01:19:59;;;;;;;4.63;2.47;;;8.80;99.90;;;;;;5060926;28;20197;-65
2022/11/27 01:22:24;;;;;;;7.23;2.40;;;8.90;99.90;;;;;;5054245;28;20190;-66
2022/11/27 01:24:50;;;;;;;7.73;4.73;;;8.80;99.90;;;;;;5067878;28;20201;-65
2022/11/27 01:27:16;;;;;;;5.20;2.77;;;9.00;99.90;;;;;;5058902;28;20723;-65
2022/11/27 01:29:41;;;;;;;4.37;2.37;;;9.10;99.90;;;;;;5070555;28;20190;-66
2022/11/27 01:32:07;;;;;;;7.20;3.57;;;9.10;99.90;;;;;;5067278;28;20184;-65
2022/11/27 01:34:33;;;;;;;4.13;2.67;;;9.10;99.90;;;;;;5064009;28;20193;-65
2022/11/27 01:36:58;;;;;;;5.00;3.10;;;9.00;99.90;;;;;;5056908;28;20209;-65
2022/11/27 01:39:24;;;;;;;4.93;2.90;;;9.10;99.90;;;;;;5058503;28;20315;-65
2022/11/27 01:41:49;;;;;;;9.93;3.17;;;9.10;99.90;;;;;;5065525;28;20193;-66
2022/11/27 01:44:24;;;;;;;3.60;2.63;;;9.10;99.90;;;;;;5059657;28;20188;-65
2022/11/27 01:47:00;;;;;;;8.60;3.10;;;8.90;99.90;;;;;;5071936;28;20300;-65
2022/11/27 01:49:33;;;;;;;4.27;2.50;;;9.10;99.90;;;;;;5059740;28;20177;-65
2022/11/27 01:52:09;;;;;;;11.37;2.40;;;9.00;99.90;;;;;;5056373;28;20209;-65
2022/11/27 01:54:40;;;;;;;4.07;2.77;;;9.00;99.90;;;;;;5064532;28;20728;-66
2022/11/27 01:57:11;;;;;;;4.17;2.07;;;9.00;99.90;;;;;;5067133;28;20241;-65
2022/11/27 01:59:38;;;;;;;7.70;3.33;;;9.00;99.90;;;;;;5057982;28;20193;-65
2022/11/27 02:02:04;;;;;;;6.73;2.70;;;9.10;99.90;;;;;;5057157;28;20194;-65
2022/11/27 02:04:30;;;;;;;5.60;2.23;;;9.10;99.90;;;;;;5060890;28;20190;-66
2022/11/27 02:06:58;;;;;;;3.80;3.00;;;9.00;99.90;;;;;;5056986;28;20553;-65
2022/11/27 02:09:25;;;;;;;4.13;2.47;;;9.00;99.90;;;;;;5069972;28;20650;-65
2022/11/27 02:12:23;;;;;;;7.20;2.70;;;9.00;99.90;;;;;;5052943;28;20182;-65
2022/11/27 02:15:09;;;;;;;4.67;3.10;;;9.00;99.90;;;;;;5062383;28;20178;-65
2022/11/27 02:17:59;;;;;;;3.90;2.40;;;8.90;99.90;;;;;;5055098;28;20282;-65
2022/11/27 02:20:33;;;;;;;3.60;2.40;;;8.90;99.90;;;;;;5054810;28;20182;-65
2022/11/27 02:22:59;;;;;;;3.90;2.50;;;8.90;99.90;;;;;;5066056;28;20235;-65
2022/11/27 02:25:24;;;;;;;5.17;2.77;;;8.90;99.90;;;;;;5059672;28;20181;-64
2022/11/27 02:28:27;;;;;;;10.40;2.90;;;8.90;99.90;;;;;;5053079;28;20196;-65
2022/11/27 02:31:12;;;;;;;6.10;2.57;;;8.90;99.90;;;;;;5052950;28;20189;-65
2022/11/27 02:33:44;;;;;;;2.77;2.23;;;9.00;99.90;;;;;;5057834;28;20216;-65
2022/11/27 02:36:17;;;;;;;6.60;2.40;;;9.00;99.90;;;;;;5056555;28;20411;-65
2022/11/27 02:38:56;;;;;;;5.50;2.63;;;8.90;99.90;;;;;;5057576;28;20268;-65
2022/11/27 02:41:28;;;;;;;6.60;2.03;;;8.90;99.90;;;;;;5070288;28;20589;-65
2022/11/27 02:43:56;;;;;;;4.43;3.13;;;8.90;99.90;;;;;;5062945;28;20182;-65
2022/11/27 02:46:25;;;;;;;3.53;1.90;;;9.00;99.90;;;;;;5058818;28;20194;-66
2022/11/27 02:48:57;;;;;;;2.53;1.73;;;9.00;99.90;;;;;;5039612;28;20235;-66
2022/11/27 02:51:28;;;;;;;5.03;1.77;;;9.20;99.90;;;;;;5053809;28;20541;-65
2022/11/27 02:54:01;;;;;;;4.57;2.83;;;9.20;99.90;;;;;;5058062;28;20177;-66
2022/11/27 02:56:30;;;;;;;6.87;3.20;;;9.10;99.90;;;;;;5067035;28;20201;-66
2022/11/27 02:59:00;;;;;;;2.23;2.03;;;9.00;99.90;;;;;;5063052;28;20277;-65
2022/11/27 03:01:29;;;;;;;4.87;2.07;;;9.00;99.90;;;;;;5057833;28;20181;-65
2022/11/27 03:03:58;;;;;;;2.90;2.53;;;9.00;99.90;;;;;;5056128;28;20189;-66
2022/11/27 03:06:33;;;;;;;4.00;2.00;;;9.00;99.90;;;;;;5056994;28;20221;-65
2022/11/27 03:09:19;;;;;;;3.43;2.10;;;9.00;99.90;;;;;;5059039;28;20187;-65
2022/11/27 03:11:45;;;;;;;3.67;2.67;;;8.90;99.90;;;;;;5056713;28;20181;-66
2022/11/27 03:14:12;;;;;;;11.53;2.60;;;8.90;99.90;;;;;;5062039;28;20204;-65
2022/11/27 03:17:02;;;;;;;2.30;2.10;;;8.80;99.90;;;;;;5057683;28;20205;-66
2022/11/27 03:19:54;;;;;;;4.53;2.13;;;8.90;99.90;;;;;;5064654;28;20265;-65
2022/11/27 03:22:20;;;;;;;2.60;2.17;;;8.80;99.90;;;;;;5065462;28;20530;-65
2022/11/27 03:24:48;;;;;;;2.83;2.10;;;8.90;99.90;;;;;;5056081;28;20189;-65
2022/11/27 03:27:20;;;;;;;5.13;2.00;;;8.90;99.90;;;;;;5064378;28;20273;-65
2022/11/27 03:29:59;;;;;;;2.23;1.93;;;8.90;99.90;;;;;;5055699;28;20697;-66
2022/11/27 03:32:27;;;;;;;4.37;1.77;;;8.90;99.90;;;;;;5058108;28;20699;-66
2022/11/27 03:34:53;;;;;;;7.40;2.70;;;8.90;99.90;;;;;;5062258;28;20189;-66
2022/11/27 03:37:20;;;;;;;3.47;2.07;;;8.90;99.90;;;;;;5069623;28;20209;-66
2022/11/27 03:39:45;;;;;;;4.77;1.67;;;9.10;99.90;;;;;;5059912;28;20190;-66
2022/11/27 03:42:30;;;;;;;9.03;2.83;;;9.10;99.90;;;;;;5053543;28;20220;-66
2022/11/27 03:45:21;;;;;;;8.03;2.70;;;9.00;99.90;;;;;;5071044;28;20244;-66
2022/11/27 03:47:58;;;;;;;5.60;1.93;;;9.00;99.90;;;;;;5055586;28;20709;-66
2022/11/27 03:50:30;;;;;;;3.40;2.20;;;9.10;99.90;;;;;;5071936;28;20597;-66
2022/11/27 03:53:17;;;;;;;3.47;2.13;;;9.00;99.90;;;;;;5069510;28;20268;-66
2022/11/27 03:56:05;;;;;;;2.27;2.00;;;9.00;99.90;;;;;;5057151;28;20201;-66
2022/11/27 03:58:45;;;;;;;8.13;2.70;;;9.10;99.90;;;;;;5056522;28;20197;-66
2022/11/27 04:01:15;;;;;;;5.20;2.33;;;9.10;99.90;;;;;;5062708;28;20215;-66
2022/11/27 04:03:41;;;;;;;8.23;2.73;;;9.10;99.90;;;;;;5067728;28;20319;-66
2022/11/27 04:06:07;;;;;;;4.53;3.00;;;9.20;99.90;;;;;;5062848;28;20652;-66
2022/11/27 04:08:32;;;;;;;3.57;2.30;;;9.10;99.90;;;;;;5056374;28;20190;-66
2022/11/27 04:10:58;;;;;;;5.40;2.23;;;9.10;99.90;;;;;;5039924;28;20268;-66
2022/11/27 04:13:23;;;;;;;7.13;2.13;;;9.10;99.90;;;;;;5059322;28;20332;-66
2022/11/27 04:15:49;;;;;;;7.80;2.80;;;9.00;99.90;;;;;;5059700;28;20193;-65
2022/11/27 04:18:16;;;;;;;4.03;2.47;;;9.10;99.90;;;;;;5061074;28;20284;-65
2022/11/27 04:20:42;;;;;;;2.87;2.27;;;9.10;99.90;;;;;;5072466;28;20197;-66
2022/11/27 04:23:08;;;;;;;7.83;2.30;;;9.10;99.90;;;;;;5069964;28;20178;-65
2022/11/27 04:25:34;;;;;;;5.63;2.80;;;9.10;99.90;;;;;;5064972;28;20190;-65
2022/11/27 04:28:00;;;;;;;4.83;2.53;;;9.00;99.90;;;;;;5053144;28;20202;-66
2022/11/27 04:30:25;;;;;;;5.10;2.67;;;9.00;99.90;;;;;;5077023;28;20185;-65
2022/11/27 04:32:51;;;;;;;3.83;2.67;;;8.90;99.90;;;;;;5070154;28;20603;-66
2022/11/27 04:35:17;;;;;;;5.03;2.77;;;8.90;99.90;;;;;;5054561;28;20217;-66
2022/11/27 04:37:42;;;;;;;5.23;2.50;;;8.90;99.90;;;;;;5099588;28;20236;-66
2022/11/27 04:40:09;;;;;;;3.87;2.33;;;9.00;99.90;;;;;;5059924;28;20301;-66
2022/11/27 04:42:34;;;;;;;2.90;2.03;;;9.00;99.90;;;;;;5060783;28;20696;-66
2022/11/27 04:45:00;;;;;;;4.83;2.40;;;8.90;99.90;;;;;;5090989;28;20213;-66
2022/11/27 04:47:26;;;;;;;9.50;3.57;;;8.90;99.90;;;;;;5054772;28;20197;-66
2022/11/27 04:49:51;;;;;;;7.83;3.37;;;9.00;99.90;;;;;;5066717;28;20182;-66
2022/11/27 04:52:17;;;;;;;4.17;2.57;;;9.00;99.90;;;;;;5053505;28;20193;-66
2022/11/27 04:54:42;;;;;;;3.93;2.80;;;9.00;99.90;;;;;;5057694;28;20242;-66
2022/11/27 04:57:08;;;;;;;4.83;2.77;;;9.00;99.90;;;;;;5052986;28;20209;-66
2022/11/27 04:59:34;;;;;;;6.23;2.50;;;8.90;99.90;;;;;;5053450;28;20248;-65
2022/11/27 05:01:59;;;;;;;6.33;2.80;;;9.00;99.90;;;;;;5058036;28;20261;-66
2022/11/27 05:04:25;;;;;;;10.13;3.03;;;8.90;99.90;;;;;;5067060;28;20553;-65
2022/11/27 05:06:51;;;;;;;5.10;3.83;;;8.80;99.90;;;;;;5052618;28;20705;-65
2022/11/27 05:09:17;;;;;;;9.80;3.00;;;8.80;99.90;;;;;;5063712;28;20297;-65
2022/11/27 05:11:43;;;;;;;5.47;2.57;;;8.80;99.90;;;;;;5053120;28;20214;-65
2022/11/27 05:14:15;;;;;;;5.87;2.93;;;8.80;99.90;;;;;;5052395;28;20240;-65
2022/11/27 05:16:47;;;;;;;6.50;3.07;;;8.80;99.90;;;;;;5072200;28;20217;-66
2022/11/27 05:19:13;;;;;;;6.73;2.87;;;8.80;99.90;;;;;;5062403;28;20197;-65
2022/11/27 05:21:40;;;;;;;7.63;3.13;;;8.80;99.90;;;;;;5068755;28;20209;-65
2022/11/27 05:24:06;;;;;;;7.93;3.03;;;8.70;99.90;;;;;;5065494;28;20182;-65
2022/11/27 05:26:32;;;;;;;6.13;3.23;;;8.70;99.90;;;;;;5094604;28;20193;-66
2022/11/27 05:28:57;;;;;;;5.03;2.63;;;8.80;99.90;;;;;;5063104;28;20178;-66
2022/11/27 05:31:23;;;;;;;5.73;3.60;;;8.80;99.90;;;;;;5071107;28;20185;-65
2022/11/27 05:33:49;;;;;;;4.67;2.60;;;8.90;99.90;;;;;;5053888;28;20244;-65
2022/11/27 05:36:15;;;;;;;5.67;3.87;;;8.80;99.90;;;;;;5067804;28;20214;-65
2022/11/27 05:38:40;;;;;;;7.43;3.17;;;8.80;99.90;;;;;;5068569;28;20197;-65
2022/11/27 05:41:06;;;;;;;5.50;3.80;;;8.70;99.90;;;;;;5059287;28;20635;-65
2022/11/27 05:43:32;;;;;;;6.63;3.70;;;8.70;99.90;;;;;;5069552;28;20200;-65
2022/11/27 05:45:57;;;;;;;3.90;3.30;;;8.80;99.90;;;;;;5063895;28;20272;-66
2022/11/27 05:48:23;;;;;;;10.93;4.20;;;8.80;99.90;;;;;;5052368;28;20576;-65
2022/11/27 05:50:48;;;;;;;5.07;3.10;;;8.80;99.90;;;;;;5054731;28;20698;-65
2022/11/27 05:53:14;;;;;;;5.97;3.23;;;8.70;99.90;;;;;;5052429;28;20239;-66
2022/11/27 05:55:40;;;;;;;6.97;3.33;;;8.70;99.90;;;;;;5060017;28;20197;-65
2022/11/27 05:58:05;;;;;;;6.03;3.90;;;8.70;99.90;;;;;;5059767;28;20217;-66
2022/11/27 06:00:31;;;;;;;6.73;2.97;;;8.70;99.90;;;;;;5066370;28;20192;-66
2022/11/27 06:02:57;;;;;;;3.57;3.27;;;8.70;99.90;;;;;;5054899;28;20190;-65
2022/11/27 06:05:22;;;;;;;7.63;3.83;;;8.80;99.90;;;;;;5060107;28;20601;-65
2022/11/27 06:07:48;;;;;;;9.73;3.40;;;8.70;99.90;;;;;;5057045;28;20243;-64
2022/11/27 06:10:14;;;;;;;7.13;3.60;;;8.80;99.90;;;;;;5054020;28;20182;-65
2022/11/27 06:12:39;;;;;;;7.73;2.97;;;8.80;99.90;;;;;;5065262;28;20194;-64
2022/11/27 06:15:06;;;;;;;4.13;2.83;;;8.80;99.90;;;;;;5053377;28;20190;-66
2022/11/27 06:17:32;;;;;;;4.40;3.00;;;8.70;99.90;;;;;;5068944;28;20605;-66
2022/11/27 06:19:57;;;;;;;10.83;4.97;;;8.80;99.90;;;;;;5052538;28;20240;-65
2022/11/27 06:22:23;;;;;;;7.77;3.23;;;8.70;99.90;;;;;;5062556;28;20225;-65
2022/11/27 06:24:49;;;;;;;7.50;2.93;;;8.70;99.90;;;;;;5068053;28;20196;-64
2022/11/27 06:27:15;;;;;;;5.67;2.77;;;8.70;99.90;;;;;;5053037;28;20186;-64
2022/11/27 06:29:41;;;;;;;5.03;2.93;;;8.70;99.90;;;;;;5053332;28;20190;-64
2022/11/27 06:32:06;;;;;;;7.73;3.40;;;8.70;99.90;;;;;;5053664;28;20194;-64
2022/11/27 06:34:32;;;;;;;3.73;2.80;;;8.70;99.90;;;;;;5052596;28;20228;-64
2022/11/27 06:36:58;;;;;;;5.27;4.00;;;8.70;99.90;;;;;;5059271;28;20248;-65
2022/11/27 06:39:24;;;;;;;5.40;3.47;;;8.70;99.90;;;;;;5052865;28;20659;-65
2022/11/27 06:41:49;;;;;;;9.00;3.77;;;8.70;99.90;;;;;;5052632;28;20269;-65
2022/11/27 06:44:15;;;;;;;9.33;4.17;;;8.70;99.90;;;;;;5052974;28;20186;-65
2022/11/27 06:46:41;;;;;;;5.10;2.60;;;8.70;99.90;;;;;;5067612;28;20201;-65
2022/11/27 06:49:06;;;;;;;6.90;3.20;;;8.90;99.90;;;;;;5051594;28;20185;-64
2022/11/27 06:51:32;;;;;;;6.77;2.97;;;8.90;99.90;;;;;;5052416;28;20189;-65
2022/11/27 06:53:59;;;;;;;8.27;3.53;;;8.80;99.90;;;;;;5060899;28;20186;-66
2022/11/27 06:56:26;;;;;;;5.53;3.30;;;8.90;99.90;;;;;;5055455;28;20678;-66
2022/11/27 06:58:57;;;;;;;9.80;3.93;;;8.90;99.90;;;;;;5052496;28;20192;-65
2022/11/27 07:01:25;;;;;;;8.57;3.50;;;8.90;99.90;;;;;;5085106;28;20186;-65
2022/11/27 07:03:50;;;;;;;5.90;3.00;;;8.90;99.90;;;;;;5052682;28;20635;-66
2022/11/27 07:06:22;;;;;;;7.03;3.43;;;9.00;99.90;;;;;;5059622;28;20197;-66
2022/11/27 07:08:48;;;;;;;6.50;2.97;;;9.10;99.90;;;;;;5056215;28;20193;-66
2022/11/27 07:11:17;;;;;;;6.03;3.43;;;9.10;99.90;;;;;;5051161;28;20186;-66
2022/11/27 07:13:43;;;;;;;7.20;3.23;;;9.10;99.90;;;;;;5054113;28;20230;-66
2022/11/27 07:16:11;;;;;;;8.43;3.40;;;9.20;99.90;;;;;;5051164;28;20658;-64
2022/11/27 07:18:42;;;;;;;8.50;3.90;;;9.10;99.90;;;;;;5057209;28;20256;-65
2022/11/27 07:21:09;;;;;;;7.33;3.37;;;9.10;99.90;;;;;;5061903;28;20639;-65
2022/11/27 07:23:35;;;;;;;8.47;4.00;;;9.10;99.90;;;;;;5052285;28;20182;-65
2022/11/27 07:26:10;;;;;;;9.73;3.97;;;9.10;99.90;;;;;;5068379;28;20191;-65
2022/11/27 07:28:36;;;;;;;5.23;3.17;;;9.10;99.90;;;;;;5059564;28;20181;-65
2022/11/27 07:31:02;;;;;;;7.23;3.10;;;9.10;99.90;;;;;;5060413;28;20213;-65
2022/11/27 07:33:27;;;;;;;6.77;3.57;;;9.10;99.90;;;;;;5059555;28;20257;-66
2022/11/27 07:36:06;;;;;;;6.63;3.60;;;9.20;99.90;;;;;;5064262;28;20281;-66
2022/11/27 07:38:32;;;;;;;6.53;3.40;;;9.20;99.90;;;;;;5058013;28;20185;-66
2022/11/27 07:41:02;;;;;;;4.63;3.10;;;9.10;99.90;;;;;;5065360;28;20192;-66
2022/11/27 07:43:29;;;;;;;8.80;3.43;;;9.10;99.90;;;;;;5057473;28;20186;-66
2022/11/27 07:45:54;;;;;;;7.30;3.87;;;9.20;99.90;;;;;;5060946;28;20186;-65
2022/11/27 07:48:20;;;;;;;12.77;4.03;;;9.10;99.90;;;;;;5055638;28;20201;-65
2022/11/27 07:50:46;;;;;;;8.33;3.73;;;9.00;99.90;;;;;;5054691;28;20639;-65
2022/11/27 07:53:12;;;;;;;4.97;2.97;;;8.90;99.90;;;;;;5072973;28;20194;-65
2022/11/27 07:55:38;;;;;;;7.30;3.13;;;8.90;99.90;;;;;;5061935;28;20554;-65
2022/11/27 07:58:04;;;;;;;8.43;4.00;;;8.90;99.90;;;;;;5064052;28;20206;-65
2022/11/27 08:00:30;;;;;;;14.83;5.37;;;8.80;99.90;;;;;;5070432;28;20182;-65
2022/11/27 08:02:57;;;;;;;7.03;3.80;;;8.90;99.90;;;;;;5066133;28;20181;-65
2022/11/27 08:05:22;;;;;;;4.70;3.17;;;8.90;99.90;;;;;;5056841;28;20255;-65
2022/11/27 08:07:48;;;;;;;7.23;3.77;;;8.90;99.90;;;;;;5065010;28;20197;-64
2022/11/27 08:10:14;;;;;;;5.93;3.20;;;8.90;99.90;;;;;;5063116;28;20643;-64
2022/11/27 08:12:39;;;;;;;6.63;4.37;;;8.90;99.90;;;;;;5054459;28;20565;-65
2022/11/27 08:15:06;;;;;;;7.13;3.30;;;8.90;99.90;;;;;;5069324;28;20289;-64
2022/11/27 08:17:31;;;;;;;7.17;3.93;;;8.80;99.90;;;;;;5061447;28;20205;-65
2022/11/27 08:19:57;;;;;;;9.17;4.03;;;8.90;99.90;;;;;;5065018;28;20267;-65
2022/11/27 08:22:23;;;;;;;7.93;3.47;;;8.90;99.90;;;;;;5065032;28;20642;-65
2022/11/27 08:24:50;;;;;;;5.60;3.77;;;9.10;99.90;;;;;;5070377;28;20222;-65
2022/11/27 08:27:16;;;;;;;7.13;3.60;;;9.10;99.90;;;;;;5062142;28;20204;-65
2022/11/27 08:29:42;;;;;;;7.27;3.33;;;9.10;99.90;;;;;;5068627;28;20258;-65
2022/11/27 08:32:08;;;;;;;6.50;3.93;;;9.00;99.90;;;;;;5055384;28;20185;-65
2022/11/27 08:34:33;;;;;;;10.90;3.47;;;9.10;99.90;;;;;;5057561;28;20239;-65
2022/11/27 08:36:59;;;;;;;8.90;4.80;;;9.10;99.90;;;;;;5067031;28;20228;-65
2022/11/27 08:39:25;;;;;;;9.17;5.00;;;9.10;99.90;;;;;;5053911;28;20214;-64
2022/11/27 08:41:52;;;;;;;7.80;4.83;;;9.10;99.90;;;;;;5056071;28;20186;-65
2022/11/27 08:44:18;;;;;;;8.27;3.67;;;9.10;99.90;;;;;;5055056;28;20193;-65
2022/11/27 08:46:43;;;;;;;6.77;4.40;;;9.10;99.90;;;;;;5068418;28;20198;-65
2022/11/27 08:49:09;;;;;;;7.60;4.60;;;9.10;99.90;;;;;;5054649;28;20255;-65
2022/11/27 08:51:35;;;;;;;6.70;3.93;;;9.10;99.90;;;;;;5055418;28;20546;-65
2022/11/27 08:54:01;;;;;;;6.60;4.10;;;9.10;99.90;;;;;;5053291;28;20680;-66
2022/11/27 08:56:27;;;;;;;7.43;3.80;;;9.10;99.90;;;;;;5054166;28;20212;-62
2022/11/27 08:58:53;;;;;;;5.47;3.83;;;9.00;99.90;;;;;;5067790;28;20218;-63
2022/11/27 09:01:23;;;;;;;8.00;4.83;;;9.00;99.90;;;;;;5059897;28;21344;-66
2022/11/27 09:03:49;;;;;;;7.43;4.50;;;9.00;99.90;;;;;;5064705;28;20210;-65
2022/11/27 09:06:17;;;;;;;7.10;4.23;;;9.00;99.90;;;;;;5059510;28;20687;-65
2022/11/27 09:08:43;;;;;;;9.00;5.20;;;9.00;99.90;;;;;;5062461;28;20180;-66
2022/11/27 09:11:11;;;;;;;8.17;4.37;;;9.00;99.90;;;;;;5063019;28;20653;-66
2022/11/27 09:13:38;;;;;;;10.67;4.23;;;8.90;99.90;;;;;;5076935;28;20197;-65
2022/11/27 09:16:06;;;;;;;6.87;4.40;;;8.90;99.90;;;;;;5071642;28;20201;-67
2022/11/27 09:18:32;;;;;;;6.33;4.23;;;8.90;99.90;;;;;;5074435;28;20209;-65
2022/11/27 09:21:07;;;;;;;14.17;4.63;;;8.90;99.90;;;;;;5078786;28;20258;-65
2022/11/27 09:23:34;;;;;;;7.53;4.13;;;8.90;99.90;;;;;;5074390;28;20658;-63
2022/11/27 09:26:01;;;;;;;6.17;3.87;;;9.00;99.90;;;;;;5064560;28;20722;-65
2022/11/27 09:28:27;;;;;;;9.13;4.87;;;9.00;99.90;;;;;;5070146;28;20193;-66
2022/11/27 09:30:58;;;;;;;8.97;4.73;;;9.00;99.90;;;;;;5064945;28;20177;-66
2022/11/27 09:33:25;;;;;;;10.37;4.00;;;9.00;99.90;;;;;;5062287;28;20240;-65
2022/11/27 09:35:51;;;;;;;4.73;3.70;;;9.00;99.90;;;;;;5069558;28;20593;-64
2022/11/27 09:38:17;;;;;;;6.43;4.07;;;9.00;99.90;;;;;;5078599;28;20205;-67
2022/11/27 09:40:51;;;;;;;8.73;4.63;;;8.90;99.90;;;;;;5077049;28;20704;-66
2022/11/27 09:43:20;;;;;;;6.77;4.77;;;8.90;99.90;;;;;;5076604;28;20230;-64
2022/11/27 09:45:54;;;;;;;7.57;4.53;;;8.90;99.90;;;;;;5071128;28;20188;-65
2022/11/27 09:48:52;;;;;;;7.40;4.40;;;8.90;99.90;;;;;;5060238;28;20185;-64
2022/11/27 09:51:34;;;;;;;9.97;5.57;;;8.90;99.90;;;;;;5056963;28;20230;-67
2022/11/27 09:54:24;;;;;;;7.70;4.43;;;8.90;99.90;;;;;;5053882;28;20736;-64
2022/11/27 09:56:52;;;;;;;9.60;5.00;;;9.00;99.90;;;;;;5054575;28;20198;-64
2022/11/27 09:59:21;;;;;;;8.53;4.53;;;9.10;99.90;;;;;;5068447;28;20181;-65
2022/11/27 10:01:47;;;;;;;9.60;3.70;;;9.20;99.90;;;;;;5078719;28;20187;-63
2022/11/27 10:04:15;;;;;;;10.57;5.87;;;9.20;99.90;;;;;;5060994;28;20189;-65
2022/11/27 10:06:43;;;;;;;9.03;4.37;;;9.20;99.90;;;;;;5069762;28;20253;-64
2022/11/27 10:09:31;;;;;;;9.03;4.50;;;9.20;99.90;;;;;;5060506;28;20642;-64
2022/11/27 10:12:15;;;;;;;8.73;4.37;;;9.30;99.90;;;;;;5066484;28;20777;-62
2022/11/27 10:15:02;;;;;;;7.83;4.07;;;9.30;99.90;;;;;;5059715;28;20199;-64
2022/11/27 10:17:54;;;;;;;6.03;3.87;;;9.30;99.90;;;;;;5063383;28;20251;-64
2022/11/27 10:20:31;;;;;;;8.90;4.37;;;9.30;99.90;;;;;;5075538;28;20256;-64
2022/11/27 10:23:08;;;;;;;10.53;5.13;;;9.20;99.90;;;;;;5068344;28;20176;-63
2022/11/27 10:25:47;;;;;;;5.83;4.40;;;9.20;99.90;;;;;;5058368;28;20216;-63
2022/11/27 10:28:31;;;;;;;8.10;5.00;;;9.30;99.90;;;;;;5059155;28;20679;-64
2022/11/27 10:31:11;;;;;;;16.00;6.47;;;9.30;99.90;;;;;;5068215;28;20189;-66
2022/11/27 10:33:42;;;;;;;5.83;4.37;;;9.40;99.90;;;;;;5057007;28;20185;-64
2022/11/27 10:36:15;;;;;;;9.97;5.57;;;9.30;99.90;;;;;;5052396;28;20209;-63
2022/11/27 10:38:42;;;;;;;7.97;4.83;;;9.40;99.90;;;;;;5057131;28;20185;-62
2022/11/27 10:41:15;;;;;;;6.47;4.17;;;9.50;99.90;;;;;;5058554;28;20181;-62
2022/11/27 10:43:41;;;;;;;7.33;4.87;;;9.50;99.90;;;;;;5082507;27;20198;-62
2022/11/27 10:46:21;;;;;;;9.03;5.33;;;9.50;99.90;;;;;;5057208;28;20198;-63
2022/11/27 10:48:47;;;;;;;10.47;5.00;;;9.60;99.90;;;;;;5054774;28;20166;-63
2022/11/27 10:51:31;;;;;;;9.53;5.80;;;9.60;99.90;;;;;;5070302;28;20208;-64
2022/11/27 10:53:59;;;;;;;10.70;5.00;;;9.60;99.90;;;;;;5061411;28;20230;-64
2022/11/27 10:57:03;;;;;;;7.60;5.73;;;9.70;99.90;;;;;;5052033;28;20553;-63
2022/11/27 10:59:38;;;;;;;9.90;5.93;;;9.80;99.90;;;;;;5060770;28;20189;-63
2022/11/27 11:02:06;;;;;;;11.60;5.50;;;9.80;99.90;;;;;;5063181;28;20216;-63
2022/11/27 11:04:32;;;;;;;7.73;5.30;;;9.80;99.90;;;;;;5049406;28;20277;-63
2022/11/27 11:06:58;;;;;;;16.00;7.13;;;9.90;99.90;;;;;;5085510;28;20269;-64
2022/11/27 11:09:31;;;;;;;12.83;5.93;;;10.00;99.90;;;;;;5056709;28;20677;-62
2022/11/27 11:12:06;;;;;;;7.97;4.97;;;10.00;99.90;;;;;;5046253;28;20189;-63
2022/11/27 11:14:32;;;;;;;7.90;4.80;;;9.90;99.90;;;;;;5064705;28;20196;-63
2022/11/27 11:16:58;;;;;;;7.53;5.10;;;9.90;99.90;;;;;;5059388;28;20200;-63
2022/11/27 11:19:24;;;;;;;11.03;5.40;;;9.80;99.90;;;;;;5072418;27;20181;-62
2022/11/27 11:21:51;;;;;;;6.93;5.00;;;9.80;99.90;;;;;;5059182;28;20186;-63
2022/11/27 11:24:25;;;;;;;8.27;5.57;;;9.90;99.90;;;;;;5065635;28;20285;-64
2022/11/27 11:26:55;;;;;;;11.37;6.77;;;9.90;99.90;;;;;;5070467;28;20238;-62
2022/11/27 11:29:39;;;;;;;7.87;5.33;;;10.00;99.90;;;;;;5060855;28;20850;-63
2022/11/27 11:32:11;;;;;;;9.13;5.23;;;9.90;99.90;;;;;;5073948;28;20189;-64
2022/11/27 11:34:47;;;;;;;8.73;5.00;;;10.10;99.90;;;;;;5069782;28;20638;-64
2022/11/27 11:37:33;;;;;;;8.13;4.67;;;10.20;99.90;;;;;;5058870;28;20198;-64
2022/11/27 11:40:05;;;;;;;7.10;4.83;;;10.40;99.90;;;;;;5056355;28;20604;-64
2022/11/27 11:42:33;;;;;;;10.97;5.00;;;10.40;99.90;;;;;;5057570;28;20194;-64
2022/11/27 11:45:16;;;;;;;9.20;5.13;;;10.40;99.90;;;;;;5061312;28;20170;-63
2022/11/27 11:47:47;;;;;;;10.87;5.27;;;10.30;99.90;;;;;;5055758;28;20208;-65
2022/11/27 11:50:18;;;;;;;12.93;6.73;;;10.40;99.90;;;;;;5058052;28;20209;-63
2022/11/27 11:52:47;;;;;;;8.47;4.80;;;10.50;99.90;;;;;;5062506;28;20200;-63
2022/11/27 11:55:28;;;;;;;10.47;6.17;;;10.30;99.90;;;;;;5060020;28;20189;-64
2022/11/27 11:58:11;;;;;;;9.57;5.20;;;10.30;99.90;;;;;;5056193;28;20220;-63
2022/11/27 12:00:48;;;;;;;8.90;5.83;;;10.30;99.90;;;;;;5062895;28;20186;-63
2022/11/27 12:03:14;;;;;;;8.90;5.07;;;10.40;99.90;;;;;;5053843;28;20178;-64
2022/11/27 12:05:53;;;;;;;9.67;5.73;;;10.30;99.90;;;;;;5059496;28;20193;-65
2022/11/27 12:08:28;;;;;;;12.27;7.33;;;10.30;99.90;;;;;;5055114;28;20182;-64
2022/11/27 12:11:17;;;;;;;8.67;5.20;;;10.40;99.90;;;;;;5059627;28;20276;-65
2022/11/27 12:14:14;;;;;;;9.03;5.80;;;10.40;99.90;;;;;;5055647;28;20202;-64
2022/11/27 12:16:57;;;;;;;7.97;5.10;;;10.40;99.90;;;;;;5066591;28;20202;-63
2022/11/27 12:19:32;;;;;;;12.07;5.47;;;10.40;99.90;;;;;;5064747;28;20232;-64
2022/11/27 12:22:19;;;;;;;10.43;6.07;;;10.50;99.90;;;;;;5054951;28;20182;-64
2022/11/27 12:25:21;;;;;;;13.00;5.67;;;10.50;99.90;;;;;;5067622;28;20235;-66
2022/11/27 12:27:58;;;;;;;9.80;5.20;;;10.50;99.90;;;;;;5067233;28;20264;-63
2022/11/27 12:30:36;;;;;;;9.50;5.40;;;10.30;99.90;;;;;;5054626;28;20186;-64
2022/11/27 12:33:37;;;;;;;11.53;6.37;;;10.10;99.90;;;;;;5056450;28;20323;-65
2022/11/27 12:36:14;;;;;;;11.87;6.50;;;10.20;99.90;;;;;;5064413;28;20180;-65
2022/11/27 12:38:54;;;;;;;9.63;5.43;;;10.20;99.90;;;;;;5060575;28;20225;-67
2022/11/27 12:41:45;;;;;;;9.23;4.43;;;10.30;99.90;;;;;;5062030;28;20216;-66
2022/11/27 12:44:22;;;;;;;8.37;5.03;;;10.30;99.90;;;;;;5054928;28;20446;-64
2022/11/27 12:46:59;;;;;;;8.53;4.77;;;10.30;99.90;;;;;;5071199;28;20186;-65
2022/11/27 12:49:31;;;;;;;9.07;4.90;;;10.30;99.90;;;;;;5055505;28;20181;-64
2022/11/27 12:52:02;;;;;;;10.30;4.77;;;10.20;99.90;;;;;;5050353;28;20201;-63
2022/11/27 12:54:37;;;;;;;9.03;4.50;;;10.20;99.90;;;;;;5068589;28;20193;-66
2022/11/27 12:57:11;;;;;;;5.70;4.10;;;10.20;99.90;;;;;;5049063;28;20240;-64
2022/11/27 13:00:02;;;;;;;8.17;4.87;;;10.10;99.90;;;;;;5065964;28;20191;-64
2022/11/27 13:02:37;;;;;;;6.50;4.77;;;10.20;99.90;;;;;;5056945;28;20193;-66
2022/11/27 13:05:04;;;;;;;7.53;4.83;;;10.10;99.90;;;;;;5055670;28;20215;-66
2022/11/27 13:07:57;;;;;;;6.60;4.80;;;10.30;99.90;;;;;;5062082;28;20208;-66
2022/11/27 13:10:55;;;;;;;6.10;4.30;;;10.30;99.90;;;;;;5057008;28;20205;-66
2022/11/27 13:13:36;;;;;;;6.53;4.53;;;10.40;99.90;;;;;;5053029;28;20206;-66